Time;durP1;ratioP1;P1;durP2;ratioP2;P2;SDS_P1;SDS_P2;PMS_P1;PMS_P2;Temp;Humidity;BMP_temperature;BMP_pressure;BME280_temperature;BME280_humidity;BME280_pressure;Samples;Min_cycle;Max_cycle;Signal;HPM_P1;HPM_P2
2022/07/22 00:00:13;;;;;;;15.50;2.90;;;15.60;99.90;;;;;;5025751;28;20191;-73
2022/07/22 00:02:39;;;;;;;11.65;2.75;;;15.60;99.90;;;;;;4995128;28;20426;-73
2022/07/22 00:05:05;;;;;;;10.65;2.88;;;15.60;99.90;;;;;;4996204;28;20049;-73
2022/07/22 00:07:31;;;;;;;10.32;2.92;;;15.60;99.90;;;;;;5027031;28;20065;-73
2022/07/22 00:09:57;;;;;;;13.60;2.72;;;15.60;99.90;;;;;;4992477;28;20068;-73
2022/07/22 00:12:23;;;;;;;9.60;2.90;;;15.60;99.90;;;;;;4992614;28;20080;-73
2022/07/22 00:14:49;;;;;;;11.38;3.03;;;15.60;99.90;;;;;;4994109;28;20386;-73
2022/07/22 00:17:14;;;;;;;9.82;2.85;;;15.70;99.90;;;;;;5031462;28;20033;-73
2022/07/22 00:19:40;;;;;;;12.63;3.00;;;15.60;99.90;;;;;;5009118;28;20061;-73
2022/07/22 00:22:06;;;;;;;11.23;3.42;;;15.60;99.90;;;;;;4996975;28;20420;-73
2022/07/22 00:24:31;;;;;;;11.88;3.05;;;15.70;99.90;;;;;;5024683;28;20034;-73
2022/07/22 00:26:57;;;;;;;12.48;3.03;;;15.60;99.90;;;;;;4995101;28;20046;-73
2022/07/22 00:29:23;;;;;;;14.50;3.25;;;15.60;99.90;;;;;;5023664;28;20041;-73
2022/07/22 00:31:49;;;;;;;9.23;2.95;;;15.60;99.90;;;;;;4992070;28;20096;-73
2022/07/22 00:34:14;;;;;;;10.45;2.95;;;15.60;99.90;;;;;;5023589;28;20510;-73
2022/07/22 00:36:40;;;;;;;9.93;2.95;;;15.60;99.90;;;;;;4995335;28;20496;-73
2022/07/22 00:39:06;;;;;;;12.15;2.97;;;15.60;99.90;;;;;;5026118;28;20107;-74
2022/07/22 00:41:32;;;;;;;10.90;3.03;;;15.60;99.90;;;;;;4992656;28;20675;-73
2022/07/22 00:44:07;;;;;;;11.35;2.97;;;15.60;99.90;;;;;;4990125;28;20030;-73
2022/07/22 00:46:33;;;;;;;10.63;2.88;;;15.60;99.90;;;;;;5008371;28;20112;-73
2022/07/22 00:48:59;;;;;;;16.42;3.35;;;15.60;99.90;;;;;;5023813;28;20052;-74
2022/07/22 00:51:27;;;;;;;9.35;2.60;;;15.60;99.90;;;;;;4975619;28;20064;-74
2022/07/22 00:53:54;;;;;;;10.82;2.80;;;15.60;99.90;;;;;;4988954;28;20126;-73
2022/07/22 00:56:20;;;;;;;12.73;3.95;;;15.60;99.90;;;;;;4992318;28;21023;-73
2022/07/22 00:58:49;;;;;;;11.50;3.22;;;15.60;99.90;;;;;;5023810;28;20650;-73
2022/07/22 01:01:15;;;;;;;10.82;3.33;;;15.60;99.90;;;;;;5024629;28;20056;-73
2022/07/22 01:03:41;;;;;;;10.35;2.58;;;15.60;99.90;;;;;;5024354;28;20372;-73
2022/07/22 01:06:08;;;;;;;9.20;2.63;;;15.60;99.90;;;;;;5007544;28;20050;-74
2022/07/22 01:08:34;;;;;;;13.13;2.95;;;15.70;99.90;;;;;;4998063;28;20053;-73
2022/07/22 01:11:08;;;;;;;8.43;2.83;;;15.70;99.90;;;;;;5022834;28;20058;-73
2022/07/22 01:13:33;;;;;;;12.27;2.55;;;15.70;99.90;;;;;;5024756;28;20038;-73
2022/07/22 01:15:59;;;;;;;10.32;2.63;;;15.60;99.90;;;;;;4995079;28;20504;-73
2022/07/22 01:18:25;;;;;;;9.43;2.20;;;15.60;99.90;;;;;;4997914;28;20048;-73
2022/07/22 01:20:51;;;;;;;12.07;2.55;;;15.60;99.90;;;;;;5029335;28;20038;-73
2022/07/22 01:23:16;;;;;;;9.90;2.20;;;15.60;99.90;;;;;;5030659;28;20046;-73
2022/07/22 01:25:42;;;;;;;7.30;2.47;;;15.60;99.90;;;;;;5027680;28;20389;-73
2022/07/22 01:28:08;;;;;;;10.02;2.75;;;15.60;99.90;;;;;;5031876;28;20414;-73
2022/07/22 01:30:33;;;;;;;7.82;2.00;;;15.60;99.90;;;;;;5029267;28;20367;-73
2022/07/22 01:32:59;;;;;;;8.75;2.30;;;15.60;99.90;;;;;;5030926;28;20045;-73
2022/07/22 01:35:24;;;;;;;12.55;2.17;;;15.60;99.90;;;;;;4997163;28;20065;-74
2022/07/22 01:37:50;;;;;;;8.07;2.45;;;15.60;99.90;;;;;;5013699;28;20046;-74
2022/07/22 01:40:16;;;;;;;6.70;2.40;;;15.60;99.90;;;;;;4994824;28;20130;-73
2022/07/22 01:42:41;;;;;;;8.45;2.28;;;15.60;99.90;;;;;;5028211;28;20042;-73
2022/07/22 01:45:08;;;;;;;11.45;2.70;;;15.60;99.90;;;;;;4995595;28;20069;-74
2022/07/22 01:47:33;;;;;;;10.30;2.35;;;15.60;99.90;;;;;;4978476;28;20089;-74
2022/07/22 01:49:59;;;;;;;11.88;2.60;;;15.50;99.90;;;;;;4998870;28;20089;-73
2022/07/22 01:52:25;;;;;;;8.50;2.40;;;15.50;99.90;;;;;;5028267;28;20038;-74
2022/07/22 01:54:50;;;;;;;11.27;2.35;;;15.50;99.90;;;;;;5011898;28;20042;-74
2022/07/22 01:57:16;;;;;;;9.85;2.35;;;15.50;99.90;;;;;;4994516;28;20033;-74
2022/07/22 01:59:42;;;;;;;9.63;2.10;;;15.50;99.90;;;;;;4995345;28;20128;-74
2022/07/22 02:02:07;;;;;;;9.82;2.45;;;15.50;99.90;;;;;;4994618;28;20073;-74
2022/07/22 02:04:33;;;;;;;12.00;2.05;;;15.50;99.90;;;;;;5029416;28;20049;-74
2022/07/22 02:06:59;;;;;;;9.70;2.55;;;15.50;99.90;;;;;;4978846;28;20057;-73
2022/07/22 02:09:24;;;;;;;10.25;2.05;;;15.50;99.90;;;;;;5031517;28;20042;-73
2022/07/22 02:11:50;;;;;;;9.35;2.17;;;15.40;99.90;;;;;;5029435;28;20053;-73
2022/07/22 02:14:16;;;;;;;10.73;1.88;;;15.40;99.90;;;;;;4999732;28;20033;-73
2022/07/22 02:16:41;;;;;;;7.57;1.90;;;15.40;99.90;;;;;;4995742;28;20506;-73
2022/07/22 02:19:07;;;;;;;7.55;1.85;;;15.40;99.90;;;;;;4996192;28;20413;-73
2022/07/22 02:21:33;;;;;;;6.70;1.73;;;15.40;99.90;;;;;;4994774;28;20076;-73
2022/07/22 02:23:59;;;;;;;14.65;2.20;;;15.40;99.90;;;;;;4995036;28;20154;-73
2022/07/22 02:26:25;;;;;;;9.98;2.28;;;15.40;99.90;;;;;;5029561;28;20576;-73
2022/07/22 02:28:50;;;;;;;8.68;2.20;;;15.40;99.90;;;;;;5025765;28;20064;-73
2022/07/22 02:31:16;;;;;;;7.72;2.15;;;15.40;99.90;;;;;;5010578;28;20058;-73
2022/07/22 02:33:42;;;;;;;5.85;1.63;;;15.40;99.90;;;;;;5026182;28;20501;-73
2022/07/22 02:36:08;;;;;;;7.30;2.00;;;15.50;99.90;;;;;;4997089;28;20367;-73
2022/07/22 02:38:33;;;;;;;6.70;2.38;;;15.40;99.90;;;;;;5026709;28;20073;-73
2022/07/22 02:40:59;;;;;;;8.68;2.35;;;15.40;99.90;;;;;;4995813;28;20073;-74
2022/07/22 02:43:25;;;;;;;6.93;1.85;;;15.40;99.90;;;;;;4991560;28;20155;-74
2022/07/22 02:45:51;;;;;;;10.27;2.63;;;15.40;99.90;;;;;;5026659;28;20056;-74
2022/07/22 02:48:16;;;;;;;9.60;2.45;;;15.40;99.90;;;;;;4993592;28;20038;-74
2022/07/22 02:50:49;;;;;;;7.93;2.03;;;15.40;99.90;;;;;;5030184;28;20142;-74
2022/07/22 02:53:14;;;;;;;11.60;2.42;;;15.40;99.90;;;;;;5027006;28;20048;-74
2022/07/22 02:55:40;;;;;;;6.25;2.10;;;15.40;99.90;;;;;;5009118;28;20045;-74
2022/07/22 02:58:08;;;;;;;6.10;1.85;;;15.40;99.90;;;;;;4994049;28;20063;-74
2022/07/22 03:00:37;;;;;;;7.88;2.13;;;15.40;99.90;;;;;;4995078;28;20042;-74
2022/07/22 03:03:03;;;;;;;6.18;2.30;;;15.30;99.90;;;;;;4995524;28;20041;-74
2022/07/22 03:05:29;;;;;;;8.55;2.00;;;15.40;99.90;;;;;;5025783;28;20513;-74
2022/07/22 03:07:55;;;;;;;7.10;2.13;;;15.40;99.90;;;;;;4998146;28;20042;-74
2022/07/22 03:10:21;;;;;;;6.82;1.88;;;15.40;99.90;;;;;;5025994;28;20052;-74
2022/07/22 03:12:47;;;;;;;7.55;1.90;;;15.40;99.90;;;;;;4995245;28;20033;-74
2022/07/22 03:15:13;;;;;;;7.05;2.10;;;15.40;99.90;;;;;;5025013;28;20107;-74
2022/07/22 03:17:38;;;;;;;4.43;1.58;;;15.40;99.90;;;;;;4979971;28;20076;-74
2022/07/22 03:20:09;;;;;;;7.72;2.38;;;15.40;99.90;;;;;;4990942;28;20049;-74
2022/07/22 03:22:35;;;;;;;9.23;2.42;;;15.40;99.90;;;;;;4992168;28;20072;-74
2022/07/22 03:25:01;;;;;;;7.15;2.10;;;15.30;99.90;;;;;;4990738;28;20037;-74
2022/07/22 03:27:27;;;;;;;6.60;2.13;;;15.30;99.90;;;;;;4996138;28;20033;-74
2022/07/22 03:29:52;;;;;;;9.38;2.55;;;15.40;99.90;;;;;;4976756;28;20101;-74
2022/07/22 03:32:18;;;;;;;9.00;2.22;;;15.40;99.90;;;;;;4994527;28;20041;-74
2022/07/22 03:34:44;;;;;;;7.72;2.17;;;15.30;99.90;;;;;;4993014;28;20037;-74
2022/07/22 03:37:10;;;;;;;11.18;2.20;;;15.40;99.90;;;;;;4994534;28;20771;-74
2022/07/22 03:39:36;;;;;;;7.75;2.20;;;15.40;99.90;;;;;;4993548;28;20490;-74
2022/07/22 03:42:02;;;;;;;7.97;2.13;;;15.40;99.90;;;;;;4978371;28;20044;-74
2022/07/22 03:44:28;;;;;;;13.45;2.55;;;15.30;99.90;;;;;;4984476;28;20046;-74
2022/07/22 03:46:54;;;;;;;6.47;1.58;;;15.30;99.90;;;;;;5009789;28;20426;-74
2022/07/22 03:49:19;;;;;;;8.68;2.05;;;15.30;99.90;;;;;;5027103;28;20100;-74
2022/07/22 03:51:45;;;;;;;9.57;2.40;;;15.30;99.90;;;;;;5026079;28;20482;-74
2022/07/22 03:54:11;;;;;;;9.43;2.38;;;15.30;99.90;;;;;;5027502;28;20037;-74
2022/07/22 03:56:37;;;;;;;8.10;1.90;;;15.30;99.90;;;;;;5006536;28;20115;-74
2022/07/22 03:59:03;;;;;;;6.47;2.00;;;15.30;99.90;;;;;;5029954;28;20402;-73
2022/07/22 04:01:28;;;;;;;8.85;2.10;;;15.30;99.90;;;;;;5025746;28;20533;-73
2022/07/22 04:03:54;;;;;;;9.10;2.15;;;15.30;99.90;;;;;;5028451;28;20038;-73
2022/07/22 04:06:20;;;;;;;5.53;1.80;;;15.30;99.90;;;;;;4992644;28;20042;-73
2022/07/22 04:08:46;;;;;;;6.53;1.60;;;15.30;99.90;;;;;;5026370;28;20042;-74
2022/07/22 04:11:11;;;;;;;5.00;1.70;;;15.30;99.90;;;;;;4995018;28;20196;-73
2022/07/22 04:13:37;;;;;;;7.75;1.88;;;15.30;99.90;;;;;;5008901;28;20050;-73
2022/07/22 04:16:03;;;;;;;6.55;1.58;;;15.30;99.90;;;;;;5025917;28;20052;-73
2022/07/22 04:18:32;;;;;;;6.68;1.65;;;15.30;99.90;;;;;;5023414;28;20037;-73
2022/07/22 04:20:58;;;;;;;5.18;1.70;;;15.30;99.90;;;;;;5026298;28;20125;-74
2022/07/22 04:23:24;;;;;;;8.48;1.83;;;15.30;99.90;;;;;;4993068;28;20054;-74
2022/07/22 04:25:50;;;;;;;5.97;1.63;;;15.40;99.90;;;;;;5026320;28;20053;-74
2022/07/22 04:28:16;;;;;;;20.08;12.88;;;15.40;99.90;;;;;;4992533;28;20041;-74
2022/07/22 04:30:41;;;;;;;11.05;4.53;;;15.40;99.90;;;;;;5025049;28;20464;-74
2022/07/22 04:33:07;;;;;;;7.88;2.05;;;15.40;99.90;;;;;;4975829;28;20034;-74
2022/07/22 04:35:33;;;;;;;5.32;1.85;;;15.40;99.90;;;;;;4977396;28;20034;-74
2022/07/22 04:37:59;;;;;;;8.50;1.80;;;15.40;99.90;;;;;;4989546;28;20402;-74
2022/07/22 04:40:25;;;;;;;10.07;1.90;;;15.40;99.90;;;;;;5027468;28;20042;-74
2022/07/22 04:42:50;;;;;;;6.43;1.90;;;15.40;99.90;;;;;;4992204;28;20041;-74
2022/07/22 04:45:16;;;;;;;10.23;2.28;;;15.40;99.90;;;;;;4975386;28;20486;-74
2022/07/22 04:47:42;;;;;;;6.70;1.58;;;15.50;99.90;;;;;;4975829;28;20042;-74
2022/07/22 04:50:08;;;;;;;6.63;1.70;;;15.40;99.90;;;;;;5027933;28;20405;-73
2022/07/22 04:52:34;;;;;;;6.45;1.77;;;15.50;99.90;;;;;;4997017;28;20065;-73
2022/07/22 04:54:59;;;;;;;9.20;2.13;;;15.50;99.90;;;;;;4982433;28;20541;-74
2022/07/22 04:57:26;;;;;;;11.93;2.03;;;15.50;99.90;;;;;;4995699;28;20041;-74
2022/07/22 04:59:53;;;;;;;7.38;1.80;;;15.50;99.90;;;;;;4981655;28;20068;-74
2022/07/22 05:02:19;;;;;;;6.25;1.70;;;15.50;99.90;;;;;;5034725;28;20060;-74
2022/07/22 05:04:44;;;;;;;5.10;2.03;;;15.50;99.90;;;;;;4995761;28;20050;-74
2022/07/22 05:07:11;;;;;;;8.35;2.10;;;15.50;99.90;;;;;;4997173;28;20386;-74
2022/07/22 05:09:37;;;;;;;7.45;1.70;;;15.60;99.90;;;;;;4996493;28;20038;-74
2022/07/22 05:12:03;;;;;;;5.50;1.55;;;15.60;99.90;;;;;;4982355;28;20821;-74
2022/07/22 05:14:29;;;;;;;6.13;1.88;;;15.60;99.90;;;;;;5025856;28;20169;-75
2022/07/22 05:16:55;;;;;;;5.75;1.45;;;15.70;99.90;;;;;;4981425;28;20136;-75
2022/07/22 05:19:20;;;;;;;10.27;1.65;;;15.70;99.90;;;;;;5027942;28;20053;-75
2022/07/22 05:21:46;;;;;;;6.55;2.00;;;15.70;99.90;;;;;;5029032;28;20046;-75
2022/07/22 05:24:12;;;;;;;11.40;1.60;;;15.80;99.90;;;;;;5024014;28;20069;-75
2022/07/22 05:26:38;;;;;;;5.07;1.58;;;15.80;99.90;;;;;;4996045;28;20167;-74
2022/07/22 05:29:03;;;;;;;7.22;1.83;;;15.80;99.90;;;;;;5006930;28;20575;-74
2022/07/22 05:31:29;;;;;;;5.93;2.05;;;15.80;99.90;;;;;;5030702;28;20548;-74
2022/07/22 05:33:56;;;;;;;5.93;2.00;;;15.90;99.90;;;;;;4995608;28;20042;-74
2022/07/22 05:36:21;;;;;;;7.05;2.03;;;15.90;99.90;;;;;;5029031;28;20045;-75
2022/07/22 05:38:47;;;;;;;5.75;2.05;;;16.00;99.90;;;;;;5029622;28;20042;-74
2022/07/22 05:41:13;;;;;;;7.80;1.75;;;16.00;99.90;;;;;;4999018;28;20041;-74
2022/07/22 05:43:39;;;;;;;13.15;2.47;;;15.90;99.90;;;;;;4980041;28;20443;-75
2022/07/22 05:46:05;;;;;;;7.47;2.10;;;16.00;99.90;;;;;;5031403;28;20049;-75
2022/07/22 05:48:30;;;;;;;5.70;1.55;;;16.00;99.90;;;;;;4976428;28;20056;-75
2022/07/22 05:50:56;;;;;;;8.48;1.67;;;16.00;99.90;;;;;;4996387;28;20038;-75
2022/07/22 05:53:22;;;;;;;6.40;1.75;;;15.90;99.90;;;;;;5011181;28;20050;-75
2022/07/22 05:55:48;;;;;;;6.38;1.60;;;16.00;99.90;;;;;;5008430;28;20054;-75
2022/07/22 05:58:13;;;;;;;3.13;1.60;;;16.00;99.90;;;;;;5030414;28;20038;-75
2022/07/22 06:00:39;;;;;;;5.82;1.52;;;16.00;99.90;;;;;;4977002;28;20053;-75
2022/07/22 06:03:05;;;;;;;5.43;1.50;;;16.10;99.90;;;;;;5014480;28;20050;-75
2022/07/22 06:05:31;;;;;;;5.85;1.38;;;16.20;99.90;;;;;;4994683;28;20048;-75
2022/07/22 06:07:57;;;;;;;4.90;1.40;;;16.20;99.90;;;;;;4996863;28;20521;-75
2022/07/22 06:10:22;;;;;;;7.55;1.67;;;16.20;99.90;;;;;;4994096;28;20081;-75
2022/07/22 06:12:48;;;;;;;9.13;1.80;;;16.20;99.90;;;;;;4994928;28;20104;-75
2022/07/22 06:15:14;;;;;;;5.35;1.60;;;16.20;99.90;;;;;;5026302;28;20046;-75
2022/07/22 06:17:40;;;;;;;5.95;1.83;;;16.30;99.90;;;;;;4980177;28;20050;-75
2022/07/22 06:20:06;;;;;;;8.13;1.55;;;16.30;99.90;;;;;;4978132;28;20052;-75
2022/07/22 06:22:31;;;;;;;5.82;1.77;;;16.40;99.90;;;;;;5026316;28;20056;-75
2022/07/22 06:24:57;;;;;;;7.35;1.42;;;16.40;99.90;;;;;;4993617;28;20046;-75
2022/07/22 06:27:23;;;;;;;7.15;1.67;;;16.50;99.90;;;;;;5029735;28;20144;-75
2022/07/22 06:29:48;;;;;;;6.30;1.40;;;16.50;99.90;;;;;;5010697;28;20046;-75
2022/07/22 06:32:14;;;;;;;4.53;1.40;;;16.60;99.90;;;;;;4993021;28;20458;-75
2022/07/22 06:34:40;;;;;;;8.30;1.55;;;16.60;99.90;;;;;;4995621;28;20100;-75
2022/07/22 06:37:05;;;;;;;6.13;1.10;;;16.60;99.90;;;;;;5027778;28;20136;-75
2022/07/22 06:39:31;;;;;;;6.85;1.20;;;16.60;99.90;;;;;;5035218;28;20040;-75
2022/07/22 06:41:57;;;;;;;6.47;1.45;;;16.60;99.90;;;;;;5026326;28;20045;-75
2022/07/22 06:44:22;;;;;;;7.18;1.52;;;16.70;99.90;;;;;;5031841;28;20034;-75
2022/07/22 06:46:48;;;;;;;7.00;1.70;;;16.70;99.90;;;;;;5027022;28;20518;-75
2022/07/22 06:49:14;;;;;;;5.13;1.35;;;16.80;99.90;;;;;;4990692;28;20503;-75
2022/07/22 06:51:39;;;;;;;7.40;1.33;;;16.80;99.90;;;;;;5025321;28;20103;-75
2022/07/22 06:54:05;;;;;;;6.45;1.23;;;16.80;99.90;;;;;;4977833;28;20026;-75
2022/07/22 06:56:31;;;;;;;6.35;1.20;;;16.80;99.90;;;;;;5011762;28;20034;-75
2022/07/22 06:58:56;;;;;;;6.47;1.10;;;16.90;99.90;;;;;;5008507;28;20089;-75
2022/07/22 07:01:22;;;;;;;5.35;0.95;;;16.90;99.90;;;;;;4979329;28;20054;-75
2022/07/22 07:03:48;;;;;;;6.10;1.05;;;16.80;99.90;;;;;;4996726;28;20053;-75
2022/07/22 07:06:14;;;;;;;4.10;0.98;;;16.90;99.90;;;;;;4978879;28;20076;-75
2022/07/22 07:08:40;;;;;;;5.93;1.20;;;16.90;99.90;;;;;;4992819;28;20052;-74
2022/07/22 07:11:05;;;;;;;6.55;1.50;;;17.00;99.90;;;;;;4992709;28;20521;-74
2022/07/22 07:13:31;;;;;;;6.45;1.65;;;17.00;99.90;;;;;;4994564;28;20041;-74
2022/07/22 07:15:58;;;;;;;5.78;1.20;;;17.00;99.90;;;;;;4978529;28;20034;-75
2022/07/22 07:18:23;;;;;;;4.00;1.20;;;17.20;99.90;;;;;;4992933;28;20042;-76
2022/07/22 07:20:49;;;;;;;6.10;1.20;;;17.30;99.90;;;;;;5010262;28;20052;-75
2022/07/22 07:23:15;;;;;;;4.18;1.15;;;17.30;99.90;;;;;;5025908;28;20557;-75
2022/07/22 07:25:41;;;;;;;5.60;1.33;;;17.40;99.90;;;;;;5030429;28;20063;-76
2022/07/22 07:28:07;;;;;;;4.97;1.13;;;17.60;99.90;;;;;;4974559;28;20034;-75
2022/07/22 07:30:32;;;;;;;7.20;1.35;;;17.60;99.90;;;;;;4978363;28;20148;-75
2022/07/22 07:33:00;;;;;;;5.38;1.10;;;17.70;99.90;;;;;;4990091;28;20044;-76
2022/07/22 07:35:26;;;;;;;3.97;0.88;;;17.80;99.90;;;;;;4977028;28;20064;-76
2022/07/22 07:37:52;;;;;;;4.22;0.88;;;17.80;99.90;;;;;;5027231;28;20374;-75
2022/07/22 07:40:17;;;;;;;4.72;0.70;;;17.80;99.90;;;;;;5028204;28;20037;-75
2022/07/22 07:42:43;;;;;;;5.20;1.00;;;17.80;99.90;;;;;;5009022;28;20101;-75
2022/07/22 07:45:09;;;;;;;4.32;0.70;;;17.80;99.90;;;;;;4994918;28;20038;-75
2022/07/22 07:47:35;;;;;;;3.47;0.82;;;17.80;99.90;;;;;;5026551;28;20375;-75
2022/07/22 07:50:02;;;;;;;8.48;1.10;;;17.80;99.90;;;;;;5028193;28;20412;-75
2022/07/22 07:52:28;;;;;;;7.28;0.98;;;17.80;99.90;;;;;;5024114;28;20053;-76
2022/07/22 07:54:55;;;;;;;5.05;0.80;;;17.90;99.90;;;;;;5025885;28;20116;-76
2022/07/22 07:57:21;;;;;;;5.70;0.98;;;17.90;99.90;;;;;;4993791;28;20049;-76
2022/07/22 07:59:47;;;;;;;3.85;0.60;;;17.90;99.90;;;;;;4991319;28;20052;-76
2022/07/22 08:02:13;;;;;;;3.55;0.80;;;18.00;99.90;;;;;;5009605;28;20132;-76
2022/07/22 08:04:39;;;;;;;4.43;0.63;;;18.00;99.90;;;;;;4992323;28;20042;-76
2022/07/22 08:07:05;;;;;;;4.75;0.75;;;18.00;99.90;;;;;;5010324;28;20093;-76
2022/07/22 08:09:31;;;;;;;5.57;0.80;;;18.00;99.90;;;;;;5025657;28;20498;-76
2022/07/22 08:11:57;;;;;;;3.75;0.60;;;18.00;99.90;;;;;;4993702;28;20038;-76
2022/07/22 08:14:23;;;;;;;4.28;0.68;;;18.00;99.90;;;;;;4990884;28;20391;-76
2022/07/22 08:16:50;;;;;;;4.35;1.10;;;18.10;99.90;;;;;;4994233;28;20033;-77
2022/07/22 08:19:15;;;;;;;7.22;1.00;;;18.10;99.90;;;;;;4991902;28;20042;-77
2022/07/22 08:21:42;;;;;;;4.20;0.60;;;18.10;99.90;;;;;;4994085;28;20548;-77
2022/07/22 08:24:11;;;;;;;4.90;0.80;;;18.10;99.90;;;;;;4989135;28;20042;-77
2022/07/22 08:26:37;;;;;;;3.25;0.88;;;18.00;99.90;;;;;;4993514;28;20088;-77
2022/07/22 08:29:05;;;;;;;3.17;0.90;;;17.90;99.90;;;;;;4992740;28;20034;-77
2022/07/22 08:31:34;;;;;;;4.95;0.80;;;17.90;99.90;;;;;;4996011;28;20524;-77
2022/07/22 08:34:01;;;;;;;72.40;59.45;;;17.90;99.90;;;;;;4990232;28;20045;-77
2022/07/22 08:36:27;;;;;;;7.85;4.72;;;17.90;99.90;;;;;;5009905;28;20058;-77
2022/07/22 08:38:53;;;;;;;2.92;1.00;;;18.00;99.90;;;;;;5022879;28;20100;-77
2022/07/22 08:41:20;;;;;;;4.70;0.93;;;17.90;99.90;;;;;;5026907;28;20037;-77
2022/07/22 08:43:47;;;;;;;3.13;0.88;;;18.00;99.90;;;;;;5025182;28;20077;-77
2022/07/22 08:46:13;;;;;;;4.10;1.02;;;18.00;99.90;;;;;;4990459;28;20037;-77
2022/07/22 08:48:39;;;;;;;5.90;0.98;;;18.00;99.90;;;;;;5028576;28;20049;-77
2022/07/22 08:51:05;;;;;;;5.05;0.88;;;18.00;99.90;;;;;;4992028;28;20046;-77
2022/07/22 08:53:31;;;;;;;6.93;1.10;;;18.00;99.90;;;;;;4993967;28;20096;-77
2022/07/22 08:55:58;;;;;;;5.15;0.95;;;18.10;99.90;;;;;;4976226;28;20034;-77
2022/07/22 08:58:25;;;;;;;2.80;0.70;;;18.10;99.90;;;;;;5008811;28;20095;-77
2022/07/22 09:01:09;;;;;;;4.20;0.80;;;18.20;99.90;;;;;;4971430;28;20089;-76
2022/07/22 09:03:50;;;;;;;5.85;1.08;;;18.30;99.90;;;;;;5024344;28;20714;-77
2022/07/22 09:06:20;;;;;;;5.85;1.33;;;18.30;99.90;;;;;;5023322;28;20050;-77
2022/07/22 09:08:50;;;;;;;5.45;0.98;;;18.40;99.90;;;;;;4976398;28;20125;-76
2022/07/22 09:11:17;;;;;;;6.60;1.13;;;18.40;99.90;;;;;;4992681;28;20081;-76
2022/07/22 09:13:44;;;;;;;5.47;0.88;;;18.50;99.90;;;;;;4978150;28;20120;-76
2022/07/22 09:16:10;;;;;;;4.38;0.60;;;18.60;99.90;;;;;;5009522;28;20497;-77
2022/07/22 09:18:53;;;;;;;3.88;0.80;;;18.70;99.90;;;;;;4980347;28;20423;-77
2022/07/22 09:21:21;;;;;;;6.00;1.00;;;18.80;99.90;;;;;;4994055;28;20375;-77
2022/07/22 09:23:46;;;;;;;4.97;0.93;;;18.80;99.90;;;;;;4995789;28;20045;-76
2022/07/22 09:26:39;;;;;;;6.55;0.90;;;18.90;99.90;;;;;;4991729;28;20393;-76
2022/07/22 09:29:07;;;;;;;5.85;0.90;;;18.90;99.90;;;;;;5003538;28;20061;-76
2022/07/22 09:31:36;;;;;;;2.08;0.47;;;18.90;99.90;;;;;;4982199;28;20060;-76
2022/07/22 09:34:03;;;;;;;4.07;0.73;;;18.90;99.90;;;;;;5028575;28;20041;-76
2022/07/22 09:36:29;;;;;;;4.70;0.50;;;18.90;99.90;;;;;;4993435;28;20177;-76
2022/07/22 09:38:55;;;;;;;2.78;0.60;;;19.00;99.90;;;;;;4996610;28;20038;-77
2022/07/22 09:41:21;;;;;;;4.00;0.80;;;19.00;99.90;;;;;;4980042;28;20123;-77
2022/07/22 09:43:47;;;;;;;3.50;0.63;;;19.10;99.90;;;;;;4993253;28;20042;-77
2022/07/22 09:46:12;;;;;;;6.60;1.00;;;19.10;99.90;;;;;;4978478;28;20173;-77
2022/07/22 09:48:39;;;;;;;3.42;0.65;;;19.00;99.90;;;;;;5011962;28;20390;-77
2022/07/22 09:51:06;;;;;;;5.60;0.75;;;19.00;99.90;;;;;;4994258;28;20057;-77
2022/07/22 09:53:33;;;;;;;3.42;0.77;;;19.00;99.90;;;;;;5023544;28;20069;-77
2022/07/22 09:56:01;;;;;;;3.83;0.90;;;19.00;99.90;;;;;;5025983;28;20036;-77
2022/07/22 09:58:27;;;;;;;4.15;0.80;;;19.00;99.90;;;;;;4992573;28;20044;-76
2022/07/22 10:00:54;;;;;;;5.53;0.90;;;18.90;99.90;;;;;;5029509;28;20493;-76
2022/07/22 10:03:36;;;;;;;4.00;0.75;;;18.90;99.90;;;;;;4979184;28;20402;-76
2022/07/22 10:06:03;;;;;;;2.95;0.60;;;18.90;99.90;;;;;;4994324;28;20038;-76
2022/07/22 10:08:31;;;;;;;2.65;0.70;;;18.90;99.90;;;;;;4987891;28;20121;-76
2022/07/22 10:11:02;;;;;;;4.10;0.85;;;19.00;99.90;;;;;;4980824;28;20060;-77
2022/07/22 10:13:29;;;;;;;3.67;0.82;;;18.90;99.90;;;;;;5027221;28;20074;-77
2022/07/22 10:15:56;;;;;;;4.18;0.65;;;18.60;99.90;;;;;;4999448;28;20069;-77
2022/07/22 10:18:22;;;;;;;5.22;1.10;;;18.50;99.90;;;;;;4978934;28;20069;-76
2022/07/22 10:20:59;;;;;;;4.70;0.73;;;18.30;99.90;;;;;;4998058;28;20580;-76
2022/07/22 10:23:25;;;;;;;5.40;0.70;;;18.30;99.90;;;;;;4994510;28;20050;-76
2022/07/22 10:25:55;;;;;;;1.95;0.50;;;18.10;99.90;;;;;;4995711;28;20085;-76
2022/07/22 10:28:29;;;;;;;4.93;0.63;;;18.00;99.90;;;;;;4993685;28;20054;-76
2022/07/22 10:31:13;;;;;;;;;;;17.90;99.90;;;;;;5025919;28;20149;-76
2022/07/22 10:33:40;;;;;;;6.00;0.70;;;17.90;99.90;;;;;;4994704;28;19922;-76
2022/07/22 10:36:06;;;;;;;6.85;0.90;;;17.90;99.90;;;;;;4980120;28;20046;-76
2022/07/22 10:38:32;;;;;;;4.07;0.65;;;18.00;99.90;;;;;;4995794;28;20180;-76
2022/07/22 10:41:01;;;;;;;2.25;0.50;;;18.10;99.90;;;;;;5028521;28;20057;-76
2022/07/22 10:43:43;;;;;;;4.68;0.75;;;18.10;99.90;;;;;;4991862;28;20080;-76
2022/07/22 10:46:09;;;;;;;5.55;0.75;;;18.10;99.90;;;;;;5029662;28;20041;-76
2022/07/22 10:48:38;;;;;;;6.43;0.65;;;18.30;99.90;;;;;;5026733;28;20048;-76
2022/07/22 10:51:15;;;;;;;4.90;0.57;;;18.30;99.90;;;;;;5011342;28;20097;-76
2022/07/22 10:53:46;;;;;;;3.55;0.70;;;18.30;99.90;;;;;;5007508;28;20057;-77
2022/07/22 10:56:17;;;;;;;4.82;0.85;;;18.30;99.90;;;;;;4994230;28;20042;-77
2022/07/22 10:58:57;;;;;;;2.33;0.60;;;18.40;99.90;;;;;;4971680;28;20097;-76
2022/07/22 11:01:29;;;;;;;3.65;0.40;;;18.40;99.90;;;;;;4999541;28;20057;-77
2022/07/22 11:03:56;;;;;;;4.10;0.50;;;18.30;99.90;;;;;;4992402;28;20045;-77
2022/07/22 11:06:30;;;;;;;6.78;0.57;;;18.20;99.90;;;;;;5001697;28;20037;-77
2022/07/22 11:09:02;;;;;;;3.78;0.70;;;18.20;99.90;;;;;;5010767;28;20057;-76
2022/07/22 11:11:33;;;;;;;7.28;0.57;;;18.20;99.90;;;;;;5023590;28;20479;-75
2022/07/22 11:14:00;;;;;;;1.33;0.50;;;18.30;99.90;;;;;;5023862;28;20115;-76
2022/07/22 11:16:27;;;;;;;4.40;0.57;;;18.30;99.90;;;;;;4989924;28;20538;-76
2022/07/22 11:18:57;;;;;;;2.05;0.50;;;18.40;99.90;;;;;;4997347;28;20045;-76
2022/07/22 11:21:26;;;;;;;2.88;0.60;;;18.50;99.90;;;;;;4999485;28;20092;-76
2022/07/22 11:23:55;;;;;;;5.00;0.60;;;18.60;99.90;;;;;;5013643;28;20058;-76
2022/07/22 11:26:46;;;;;;;4.05;0.60;;;18.70;99.90;;;;;;5026578;28;20096;-77
2022/07/22 11:29:25;;;;;;;3.92;0.65;;;18.70;99.90;;;;;;4991463;28;20038;-76
2022/07/22 11:31:51;;;;;;;2.05;0.50;;;18.70;99.90;;;;;;4975782;28;20062;-76
2022/07/22 11:34:17;;;;;;;4.03;0.70;;;18.80;99.90;;;;;;4978503;28;20038;-76
2022/07/22 11:36:45;;;;;;;4.50;0.77;;;18.80;99.90;;;;;;4977083;28;20049;-77
2022/07/22 11:39:13;;;;;;;2.53;0.70;;;18.90;99.90;;;;;;4995627;28;20129;-77
2022/07/22 11:41:39;;;;;;;3.03;0.57;;;19.00;99.90;;;;;;4991014;28;20065;-77
2022/07/22 11:44:06;;;;;;;5.20;0.70;;;19.00;99.90;;;;;;5026171;28;20128;-77
2022/07/22 11:46:41;;;;;;;5.90;0.80;;;19.00;99.90;;;;;;4998500;28;20046;-77
2022/07/22 11:49:08;;;;;;;6.65;0.80;;;19.10;99.90;;;;;;5024278;28;20040;-77
2022/07/22 11:51:36;;;;;;;2.70;0.50;;;19.20;99.90;;;;;;4993271;28;20096;-77
2022/07/22 11:54:03;;;;;;;3.40;0.60;;;19.30;99.90;;;;;;4993630;28;20130;-77
2022/07/22 11:56:30;;;;;;;3.22;0.50;;;19.30;99.90;;;;;;4966044;28;20053;-76
2022/07/22 11:58:56;;;;;;;4.82;0.95;;;19.40;99.90;;;;;;4993252;28;20050;-76
2022/07/22 12:01:27;;;;;;;3.60;0.70;;;19.50;99.90;;;;;;5008232;28;20053;-76
2022/07/22 12:03:59;;;;;;;2.58;0.50;;;19.50;99.90;;;;;;4995021;28;20060;-76
2022/07/22 12:06:26;;;;;;;2.83;0.60;;;19.60;99.90;;;;;;5009252;28;20100;-77
2022/07/22 12:09:02;;;;;;;2.15;0.50;;;19.70;99.90;;;;;;4996158;28;20034;-77
2022/07/22 12:11:29;;;;;;;3.28;0.70;;;19.70;99.90;;;;;;5025596;28;20042;-76
2022/07/22 12:13:55;;;;;;;5.57;0.95;;;19.60;99.90;;;;;;5031282;28;20034;-77
2022/07/22 12:16:30;;;;;;;3.85;0.70;;;19.50;99.90;;;;;;5027897;28;20464;-77
2022/07/22 12:19:02;;;;;;;4.18;0.90;;;19.40;99.90;;;;;;5025963;28;20033;-77
2022/07/22 12:21:30;;;;;;;3.22;0.75;;;19.30;99.90;;;;;;4994612;28;20044;-77
2022/07/22 12:24:06;;;;;;;5.68;0.90;;;19.20;99.90;;;;;;5028815;28;20587;-77
2022/07/22 12:26:38;;;;;;;5.40;0.82;;;19.10;99.90;;;;;;5008295;28;20517;-77
2022/07/22 12:29:25;;;;;;;3.47;0.80;;;19.10;99.90;;;;;;5005054;28;20496;-77
2022/07/22 12:31:57;;;;;;;4.00;0.82;;;19.10;99.90;;;;;;5009865;28;20758;-77
2022/07/22 12:34:43;;;;;;;1.65;0.45;;;19.00;99.90;;;;;;5023679;28;20078;-77
2022/07/22 12:37:23;;;;;;;6.50;1.10;;;19.00;99.90;;;;;;4978204;28;20559;-77
2022/07/22 12:40:19;;;;;;;4.78;1.15;;;18.90;99.90;;;;;;5025437;28;20526;-77
2022/07/22 12:42:58;;;;;;;4.78;0.90;;;18.90;99.90;;;;;;5007453;28;20125;-77
2022/07/22 12:45:26;;;;;;;2.78;0.57;;;18.80;99.90;;;;;;4993267;28;20048;-77